Time;durP1;ratioP1;P1;durP2;ratioP2;P2;SDS_P1;SDS_P2;PMS_P1;PMS_P2;Temp;Humidity;BMP_temperature;BMP_pressure;BME280_temperature;BME280_humidity;BME280_pressure;Samples;Min_cycle;Max_cycle;Signal;HPM_P1;HPM_P2
2022/03/16 00:00:21;;;;;;;65.97;33.05;;;7.40;93.10;;;;;;5002287;28;20043;-74
2022/03/16 00:02:48;;;;;;;57.03;31.27;;;7.40;93.10;;;;;;5024691;28;20014;-75
2022/03/16 00:05:14;;;;;;;55.78;31.30;;;7.30;93.00;;;;;;5027312;28;20045;-76
2022/03/16 00:07:40;;;;;;;60.00;31.50;;;7.40;93.10;;;;;;5017052;28;20025;-73
2022/03/16 00:10:07;;;;;;;55.35;30.42;;;7.40;92.90;;;;;;5029660;28;20030;-76
2022/03/16 00:12:34;;;;;;;52.42;29.98;;;7.30;92.90;;;;;;5021452;28;20017;-75
2022/03/16 00:15:00;;;;;;;55.15;31.08;;;7.20;92.70;;;;;;5022590;28;20084;-75
2022/03/16 00:17:25;;;;;;;62.00;30.95;;;7.20;93.00;;;;;;5028513;28;20660;-75
2022/03/16 00:19:51;;;;;;;56.53;31.13;;;7.20;93.00;;;;;;5017179;28;20030;-74
2022/03/16 00:22:17;;;;;;;62.20;31.42;;;7.10;93.10;;;;;;5028165;28;20026;-74
2022/03/16 00:24:43;;;;;;;57.75;30.75;;;7.10;93.20;;;;;;5022823;28;20065;-74
2022/03/16 00:27:08;;;;;;;57.40;30.75;;;7.10;93.30;;;;;;5020655;28;20034;-74
2022/03/16 00:29:34;;;;;;;60.10;31.33;;;7.10;93.20;;;;;;5030009;28;20037;-74
2022/03/16 00:32:00;;;;;;;64.03;31.70;;;7.00;93.30;;;;;;5017250;28;20044;-74
2022/03/16 00:34:26;;;;;;;65.75;31.33;;;7.00;93.40;;;;;;5026866;28;20030;-74
2022/03/16 00:36:51;;;;;;;74.88;34.55;;;7.00;93.40;;;;;;5039133;28;20512;-74
2022/03/16 00:39:17;;;;;;;70.60;33.45;;;7.00;93.50;;;;;;5019396;28;20030;-74
2022/03/16 00:41:42;;;;;;;67.45;33.08;;;6.90;93.50;;;;;;5011976;28;20033;-75
2022/03/16 00:44:11;;;;;;;62.35;32.65;;;6.80;93.60;;;;;;5017823;28;20022;-74
2022/03/16 00:46:37;;;;;;;66.00;32.90;;;6.80;93.60;;;;;;5025295;28;20080;-74
2022/03/16 00:49:04;;;;;;;69.70;33.70;;;6.70;93.70;;;;;;5024614;28;20439;-74
2022/03/16 00:51:29;;;;;;;67.43;32.35;;;6.60;93.70;;;;;;5017472;28;20401;-74
2022/03/16 00:53:55;;;;;;;80.95;35.47;;;6.60;93.80;;;;;;5029426;28;20025;-75
2022/03/16 00:56:21;;;;;;;72.97;34.65;;;6.50;93.70;;;;;;5005437;28;20404;-74
2022/03/16 00:58:46;;;;;;;82.85;34.85;;;6.40;93.70;;;;;;5022875;28;20397;-74
2022/03/16 01:01:12;;;;;;;74.78;34.67;;;6.50;93.90;;;;;;5025835;28;20033;-74
2022/03/16 01:03:40;;;;;;;88.47;36.42;;;6.40;93.80;;;;;;5016298;28;20014;-74
2022/03/16 01:06:06;;;;;;;85.20;36.70;;;6.40;93.90;;;;;;5028898;28;20072;-75
2022/03/16 01:08:32;;;;;;;92.05;38.60;;;6.40;94.00;;;;;;5002424;28;20021;-75
2022/03/16 01:10:58;;;;;;;85.95;37.17;;;6.40;94.00;;;;;;5021801;28;20030;-75
2022/03/16 01:13:23;;;;;;;98.47;37.60;;;6.40;94.10;;;;;;5027653;28;20032;-75
2022/03/16 01:15:49;;;;;;;89.00;39.75;;;6.40;94.20;;;;;;5016689;28;20025;-74
2022/03/16 01:18:15;;;;;;;100.63;41.28;;;6.50;94.20;;;;;;5028920;28;20022;-76
2022/03/16 01:20:41;;;;;;;93.82;36.80;;;6.60;94.30;;;;;;5021772;28;20036;-75
2022/03/16 01:23:07;;;;;;;97.05;39.40;;;6.50;94.30;;;;;;5021162;28;20026;-74
2022/03/16 01:25:33;;;;;;;90.60;37.92;;;6.60;94.30;;;;;;5029282;28;20071;-73
2022/03/16 01:27:58;;;;;;;92.50;39.45;;;6.60;94.30;;;;;;5016077;28;20017;-74
2022/03/16 01:30:24;;;;;;;90.85;38.88;;;6.70;94.40;;;;;;5026200;28;20072;-75
2022/03/16 01:32:49;;;;;;;78.47;35.75;;;6.70;94.30;;;;;;5022635;28;20030;-75
2022/03/16 01:35:15;;;;;;;85.57;37.13;;;6.70;94.30;;;;;;5018615;28;20453;-76
2022/03/16 01:37:43;;;;;;;89.93;38.45;;;6.70;94.20;;;;;;5013882;23;20046;-74
2022/03/16 01:40:10;;;;;;;80.50;35.00;;;6.80;94.20;;;;;;5026933;28;20053;-75
2022/03/16 01:42:36;;;;;;;82.47;35.70;;;6.80;94.20;;;;;;5020374;28;20459;-76
2022/03/16 01:45:01;;;;;;;85.40;35.78;;;6.80;94.10;;;;;;5032202;28;20108;-76
2022/03/16 01:47:27;;;;;;;82.05;35.05;;;6.80;94.00;;;;;;5017241;28;20083;-76
2022/03/16 01:49:55;;;;;;;79.72;35.65;;;6.80;94.00;;;;;;5030028;28;20476;-76
2022/03/16 01:52:29;;;;;;;82.07;36.92;;;6.90;94.10;;;;;;5019033;28;20026;-76
2022/03/16 01:54:55;;;;;;;71.55;34.38;;;6.90;94.10;;;;;;5023441;28;20522;-76
2022/03/16 01:57:22;;;;;;;73.35;35.03;;;6.90;94.00;;;;;;5028383;28;20486;-75
2022/03/16 01:59:48;;;;;;;78.55;34.17;;;7.00;94.00;;;;;;5020209;28;20089;-75
2022/03/16 02:02:15;;;;;;;67.55;33.58;;;7.00;94.00;;;;;;5032411;28;20064;-76
2022/03/16 02:04:41;;;;;;;67.28;32.63;;;7.00;93.90;;;;;;5025486;28;20036;-77
2022/03/16 02:07:07;;;;;;;66.85;33.65;;;7.00;93.90;;;;;;5019867;28;20037;-75
2022/03/16 02:09:33;;;;;;;75.00;33.80;;;7.00;93.90;;;;;;5032598;28;20075;-76
2022/03/16 02:12:00;;;;;;;68.57;31.88;;;7.00;93.80;;;;;;5035899;28;20472;-78
2022/03/16 02:14:26;;;;;;;68.85;32.45;;;6.90;93.70;;;;;;5028671;28;20026;-77
2022/03/16 02:16:51;;;;;;;70.90;32.83;;;7.00;93.70;;;;;;5024311;28;20037;-75
2022/03/16 02:19:17;;;;;;;64.45;33.67;;;7.00;93.60;;;;;;5019016;28;20425;-76
2022/03/16 02:21:46;;;;;;;66.88;33.20;;;7.00;93.60;;;;;;5028972;28;20024;-76
2022/03/16 02:24:11;;;;;;;63.85;32.38;;;7.10;93.60;;;;;;5017319;28;20092;-76
2022/03/16 02:26:38;;;;;;;60.50;29.10;;;7.20;93.40;;;;;;5023990;28;20116;-75
2022/03/16 02:29:04;;;;;;;58.63;30.48;;;7.20;93.40;;;;;;5024902;28;20055;-76
2022/03/16 02:31:29;;;;;;;57.47;29.75;;;7.10;93.30;;;;;;5017947;28;20034;-76
2022/03/16 02:33:55;;;;;;;49.03;28.63;;;7.10;93.10;;;;;;5044721;28;20056;-76
2022/03/16 02:36:21;;;;;;;49.67;28.33;;;7.20;93.30;;;;;;5017998;28;20071;-76
2022/03/16 02:38:47;;;;;;;58.60;27.17;;;7.20;93.00;;;;;;5037556;28;20515;-75
2022/03/16 02:41:12;;;;;;;47.22;25.90;;;7.20;92.50;;;;;;5025685;28;20022;-76
2022/03/16 02:43:39;;;;;;;55.22;27.90;;;7.10;92.40;;;;;;5014586;28;20028;-75
2022/03/16 02:46:04;;;;;;;45.97;27.08;;;7.20;92.60;;;;;;5027557;28;20029;-76
2022/03/16 02:48:30;;;;;;;50.75;26.65;;;7.10;92.50;;;;;;5018767;28;20029;-76
2022/03/16 02:50:55;;;;;;;49.50;28.10;;;7.10;92.50;;;;;;5020732;28;20504;-76
2022/03/16 02:53:21;;;;;;;54.80;28.50;;;7.10;92.60;;;;;;5025890;28;20412;-76
2022/03/16 02:55:47;;;;;;;51.92;27.27;;;7.10;92.60;;;;;;5014997;28;20493;-76
2022/03/16 02:58:14;;;;;;;51.60;27.55;;;7.10;92.70;;;;;;5026252;28;20049;-76
2022/03/16 03:00:40;;;;;;;48.63;26.08;;;7.10;92.60;;;;;;5020068;28;20096;-75
2022/03/16 03:03:06;;;;;;;46.25;25.60;;;7.00;92.60;;;;;;5019608;28;20026;-75
2022/03/16 03:05:31;;;;;;;50.33;27.02;;;7.00;92.40;;;;;;5027155;28;20018;-75
2022/03/16 03:07:57;;;;;;;52.10;26.67;;;7.00;92.70;;;;;;5013542;28;20044;-75
2022/03/16 03:10:23;;;;;;;48.03;25.70;;;7.00;92.70;;;;;;5024880;28;20018;-75
2022/03/16 03:12:49;;;;;;;50.75;27.30;;;6.90;92.60;;;;;;5023859;28;20065;-75
2022/03/16 03:15:15;;;;;;;44.42;26.23;;;6.90;92.70;;;;;;5021579;28;20026;-74
2022/03/16 03:17:42;;;;;;;49.00;26.95;;;6.90;92.80;;;;;;5029764;28;20029;-74
2022/03/16 03:20:09;;;;;;;48.42;28.08;;;7.00;93.00;;;;;;5034331;28;20041;-74
2022/03/16 03:22:34;;;;;;;54.53;27.38;;;7.00;93.00;;;;;;5026881;28;20033;-75
2022/03/16 03:25:00;;;;;;;52.50;27.52;;;7.00;92.90;;;;;;5026054;28;20059;-75
2022/03/16 03:27:26;;;;;;;54.17;25.90;;;6.90;92.70;;;;;;5019394;28;20022;-76
2022/03/16 03:29:52;;;;;;;53.15;28.02;;;6.90;92.60;;;;;;5031342;28;20025;-76
2022/03/16 03:32:18;;;;;;;51.28;26.83;;;7.00;92.80;;;;;;5020578;28;20480;-76
2022/03/16 03:34:47;;;;;;;53.72;28.02;;;7.00;92.80;;;;;;5026141;28;20117;-76
2022/03/16 03:37:15;;;;;;;43.55;23.83;;;7.10;92.90;;;;;;5031391;28;20064;-77
2022/03/16 03:39:41;;;;;;;52.13;24.88;;;7.10;92.70;;;;;;5018804;28;20517;-76
2022/03/16 03:42:07;;;;;;;45.60;24.33;;;7.10;92.70;;;;;;5030500;28;20032;-76
2022/03/16 03:44:37;;;;;;;46.53;24.83;;;7.10;92.60;;;;;;5022418;28;20022;-75
2022/03/16 03:47:04;;;;;;;38.67;23.30;;;7.10;92.50;;;;;;5037814;28;20048;-76
2022/03/16 03:49:30;;;;;;;46.13;24.45;;;7.00;92.30;;;;;;5029701;28;20128;-75
2022/03/16 03:51:56;;;;;;;46.22;22.48;;;7.00;92.30;;;;;;5017881;28;20053;-75
2022/03/16 03:54:21;;;;;;;43.17;23.35;;;7.00;92.20;;;;;;5028426;28;20427;-74
2022/03/16 03:56:47;;;;;;;45.38;23.23;;;7.00;92.10;;;;;;5022558;28;20026;-75
2022/03/16 03:59:12;;;;;;;39.60;22.17;;;7.00;92.00;;;;;;5020862;28;20034;-75
2022/03/16 04:01:38;;;;;;;37.67;22.92;;;6.90;91.80;;;;;;5029227;28;20025;-76
2022/03/16 04:04:04;;;;;;;41.95;23.35;;;6.90;92.20;;;;;;5017732;28;20025;-75
2022/03/16 04:06:31;;;;;;;44.90;23.60;;;6.90;92.10;;;;;;5026783;28;20018;-74
2022/03/16 04:08:57;;;;;;;41.15;23.30;;;6.90;92.20;;;;;;5024833;28;20443;-75
2022/03/16 04:11:22;;;;;;;47.95;24.42;;;6.90;92.20;;;;;;5019479;28;20021;-75
2022/03/16 04:13:48;;;;;;;43.80;23.88;;;6.80;92.10;;;;;;5030631;28;20025;-75
2022/03/16 04:16:13;;;;;;;50.45;23.67;;;7.00;92.30;;;;;;5018930;28;20075;-75
2022/03/16 04:18:39;;;;;;;47.42;26.17;;;6.90;92.10;;;;;;5024879;28;20105;-75
2022/03/16 04:21:05;;;;;;;42.88;23.25;;;6.90;92.00;;;;;;5025701;28;20047;-75
2022/03/16 04:23:30;;;;;;;43.72;23.83;;;6.90;91.80;;;;;;5017629;28;20420;-75
2022/03/16 04:25:56;;;;;;;42.95;23.70;;;7.00;92.10;;;;;;5029926;28;20022;-75
2022/03/16 04:28:22;;;;;;;43.63;24.98;;;7.00;92.00;;;;;;5019551;28;20053;-75
2022/03/16 04:30:47;;;;;;;43.58;24.10;;;7.00;92.00;;;;;;5023989;28;20105;-75
2022/03/16 04:33:13;;;;;;;36.28;22.65;;;6.90;91.60;;;;;;5025528;28;20121;-75
2022/03/16 04:35:38;;;;;;;42.95;22.77;;;7.00;91.50;;;;;;5017095;28;20496;-76
2022/03/16 04:38:04;;;;;;;42.53;23.15;;;6.90;91.60;;;;;;5029684;28;20034;-75
2022/03/16 04:40:29;;;;;;;42.00;23.55;;;6.90;91.40;;;;;;5019340;28;20017;-75
2022/03/16 04:42:55;;;;;;;39.63;21.95;;;6.90;91.30;;;;;;5022666;28;20075;-76
2022/03/16 04:45:20;;;;;;;42.20;22.58;;;6.90;91.40;;;;;;5027808;28;20036;-75
2022/03/16 04:47:46;;;;;;;41.47;21.48;;;6.80;91.10;;;;;;5019710;28;20025;-75
2022/03/16 04:50:11;;;;;;;38.47;22.63;;;6.80;91.10;;;;;;5041105;28;20025;-76
2022/03/16 04:52:48;;;;;;;42.17;23.83;;;6.80;91.30;;;;;;5032088;28;20021;-76
2022/03/16 04:55:14;;;;;;;40.17;23.27;;;6.80;91.40;;;;;;5030934;28;20022;-75
2022/03/16 04:57:41;;;;;;;39.53;21.80;;;6.70;91.20;;;;;;5044369;28;20052;-76
2022/03/16 05:00:07;;;;;;;41.50;24.05;;;6.80;91.30;;;;;;5032408;28;20060;-76
2022/03/16 05:02:33;;;;;;;41.42;23.15;;;6.70;91.40;;;;;;5026751;28;20099;-75
2022/03/16 05:05:01;;;;;;;42.97;23.45;;;6.70;91.40;;;;;;5024020;28;20068;-75
2022/03/16 05:07:28;;;;;;;38.58;22.33;;;6.70;91.20;;;;;;5016754;28;20018;-75
2022/03/16 05:09:54;;;;;;;37.63;22.48;;;6.70;91.40;;;;;;5029554;28;20511;-76
2022/03/16 05:12:20;;;;;;;52.47;24.77;;;6.70;91.30;;;;;;5019163;28;20026;-76
2022/03/16 05:14:45;;;;;;;36.70;21.45;;;6.70;91.20;;;;;;5023463;28;20433;-77
2022/03/16 05:17:11;;;;;;;40.08;22.92;;;6.70;91.40;;;;;;5024184;28;20021;-75
2022/03/16 05:19:36;;;;;;;45.92;23.10;;;6.70;91.50;;;;;;5015112;28;20022;-76
2022/03/16 05:22:02;;;;;;;40.60;23.65;;;6.80;91.70;;;;;;5028984;28;20097;-75
2022/03/16 05:24:27;;;;;;;37.95;22.55;;;6.80;91.30;;;;;;5019576;28;20020;-75
2022/03/16 05:26:53;;;;;;;44.00;22.50;;;6.80;91.40;;;;;;5022042;28;20044;-75
2022/03/16 05:29:19;;;;;;;44.17;22.73;;;6.80;91.50;;;;;;5026466;28;20395;-75
2022/03/16 05:31:44;;;;;;;42.00;22.60;;;6.80;91.20;;;;;;5016151;28;20458;-75
2022/03/16 05:34:10;;;;;;;41.80;23.17;;;6.80;91.00;;;;;;5027605;28;20022;-75
2022/03/16 05:36:36;;;;;;;43.78;21.95;;;6.90;91.10;;;;;;5019183;28;20124;-75
2022/03/16 05:39:04;;;;;;;37.97;20.92;;;6.80;90.70;;;;;;5020661;28;20040;-75
2022/03/16 05:41:29;;;;;;;40.30;21.73;;;6.90;90.60;;;;;;5043314;28;20400;-75
2022/03/16 05:43:55;;;;;;;45.28;21.77;;;6.90;90.60;;;;;;5015921;28;20022;-76
2022/03/16 05:46:21;;;;;;;39.05;22.13;;;6.90;90.50;;;;;;5025939;28;20018;-75
2022/03/16 05:48:47;;;;;;;38.22;21.35;;;6.80;90.50;;;;;;5036695;28;20025;-75
2022/03/16 05:51:12;;;;;;;35.22;20.85;;;6.80;90.60;;;;;;5019119;28;20022;-75
2022/03/16 05:53:38;;;;;;;37.40;21.65;;;6.80;90.40;;;;;;5028246;28;20057;-75
2022/03/16 05:56:04;;;;;;;34.63;21.38;;;6.90;90.50;;;;;;5015199;28;20104;-74
2022/03/16 05:58:30;;;;;;;36.55;21.02;;;6.90;90.40;;;;;;5022291;28;20433;-75
2022/03/16 06:00:55;;;;;;;39.72;22.75;;;7.00;90.20;;;;;;5036019;28;20148;-75
2022/03/16 06:03:21;;;;;;;32.90;19.65;;;7.10;90.20;;;;;;5015622;28;20396;-75
2022/03/16 06:05:47;;;;;;;34.55;19.83;;;7.10;89.70;;;;;;5026733;28;20022;-76
2022/03/16 06:08:12;;;;;;;37.70;20.30;;;7.30;89.30;;;;;;5015507;28;20025;-75
2022/03/16 06:10:39;;;;;;;34.20;18.67;;;7.40;89.10;;;;;;5022264;28;20033;-75
2022/03/16 06:13:05;;;;;;;36.55;19.67;;;7.60;88.60;;;;;;5021985;28;20516;-75
2022/03/16 06:15:39;;;;;;;30.92;18.80;;;7.80;87.60;;;;;;5015404;28;20100;-75
2022/03/16 06:18:05;;;;;;;35.38;18.52;;;7.90;87.10;;;;;;4999256;28;20025;-75
2022/03/16 06:20:33;;;;;;;28.65;17.60;;;8.00;86.10;;;;;;5024918;28;20079;-75
2022/03/16 06:22:59;;;;;;;30.17;17.83;;;8.10;85.50;;;;;;5023035;28;20392;-75
2022/03/16 06:25:24;;;;;;;27.27;16.05;;;8.30;85.40;;;;;;5016450;28;20022;-75
2022/03/16 06:27:50;;;;;;;30.25;15.98;;;8.50;84.90;;;;;;5027454;28;20025;-76
2022/03/16 06:30:16;;;;;;;27.75;16.50;;;9.10;82.80;;;;;;5016814;28;20026;-76
2022/03/16 06:32:44;;;;;;;30.60;16.88;;;9.40;81.60;;;;;;5022315;28;20168;-74
2022/03/16 06:35:10;;;;;;;26.40;15.68;;;9.80;80.50;;;;;;5024283;28;20072;-75
2022/03/16 06:37:36;;;;;;;25.55;14.88;;;10.10;79.20;;;;;;5012968;28;20447;-74
2022/03/16 06:40:02;;;;;;;24.00;15.07;;;10.50;77.20;;;;;;5028434;28;20109;-74
2022/03/16 06:42:28;;;;;;;22.70;16.02;;;10.60;76.40;;;;;;5019166;28;20018;-75
2022/03/16 06:44:53;;;;;;;23.88;15.60;;;11.00;75.90;;;;;;5031493;28;20152;-75
2022/03/16 06:47:19;;;;;;;25.35;15.20;;;11.10;74.20;;;;;;5017787;28;20030;-75
2022/03/16 06:49:45;;;;;;;28.15;17.05;;;11.00;73.90;;;;;;5032051;28;20423;-75
2022/03/16 06:52:11;;;;;;;22.85;15.70;;;10.60;74.80;;;;;;5022650;28;20057;-76
2022/03/16 06:54:37;;;;;;;24.20;16.13;;;10.20;76.20;;;;;;5051845;28;20021;-76
2022/03/16 06:57:02;;;;;;;27.92;17.63;;;10.10;77.20;;;;;;5036191;28;20017;-74
2022/03/16 06:59:28;;;;;;;24.05;16.55;;;10.20;78.00;;;;;;5043460;28;20025;-78
2022/03/16 07:01:53;;;;;;;48.65;25.98;;;10.70;77.10;;;;;;5024108;28;20026;-75
2022/03/16 07:04:19;;;;;;;36.38;20.25;;;11.70;73.30;;;;;;5031774;28;20021;-75
2022/03/16 07:06:45;;;;;;;70.35;35.85;;;12.50;69.90;;;;;;5021224;28;20021;-77
2022/03/16 07:09:10;;;;;;;34.28;18.42;;;13.60;67.90;;;;;;5026744;28;20026;-76
2022/03/16 07:11:36;;;;;;;33.35;20.35;;;14.60;64.40;;;;;;5011183;28;20087;-75
2022/03/16 07:16:45;;;;;;;49.28;27.92;;;15.00;60.50;;;;;;5038618;28;20036;-75
2022/03/16 07:19:11;;;;;;;48.90;27.30;;;15.20;58.40;;;;;;5037439;28;20085;-76
2022/03/16 07:21:37;;;;;;;30.20;18.23;;;15.20;58.40;;;;;;5031812;28;20048;-77
2022/03/16 07:24:04;;;;;;;40.60;24.70;;;15.80;56.50;;;;;;5043606;28;20560;-76
2022/03/16 07:26:29;;;;;;;38.30;24.65;;;16.10;55.90;;;;;;5027065;28;20021;-75
2022/03/16 07:28:56;;;;;;;39.70;21.48;;;16.40;54.70;;;;;;5022229;28;20179;-74
2022/03/16 07:31:21;;;;;;;40.80;25.08;;;16.40;53.80;;;;;;5024021;28;20532;-75
2022/03/16 07:33:47;;;;;;;44.05;26.17;;;16.90;53.20;;;;;;5029801;28;20048;-77
2022/03/16 07:38:40;;;;;;;43.55;24.67;;;16.80;53.50;;;;;;5070458;28;19920;-78
2022/03/16 07:41:06;;;;;;;38.30;25.00;;;17.50;51.30;;;;;;5079129;28;20025;-81
2022/03/16 07:43:31;;;;;;;38.17;24.17;;;18.00;50.00;;;;;;5061405;28;20066;-77
2022/03/16 07:45:58;;;;;;;30.15;17.55;;;17.80;50.70;;;;;;5076274;28;20380;-77
2022/03/16 07:48:24;;;;;;;45.15;27.55;;;18.20;47.60;;;;;;5058126;28;20028;-78
2022/03/16 07:50:50;;;;;;;44.25;26.63;;;18.10;49.20;;;;;;5060163;28;20037;-79
2022/03/16 07:53:16;;;;;;;22.55;16.10;;;17.40;49.40;;;;;;5080477;28;20544;-79
2022/03/16 07:55:42;;;;;;;22.92;16.08;;;17.40;48.60;;;;;;5077346;28;20126;-79
2022/03/16 07:58:07;;;;;;;23.67;16.67;;;16.20;51.20;;;;;;5079291;28;20033;-77
2022/03/16 08:00:33;;;;;;;23.80;16.77;;;14.80;54.00;;;;;;5061589;28;20077;-79
2022/03/16 08:03:01;;;;;;;27.52;16.98;;;13.90;56.90;;;;;;5079643;28;20104;-78
2022/03/16 08:05:27;;;;;;;26.20;17.42;;;13.20;59.70;;;;;;5083280;28;20032;-80
2022/03/16 08:07:53;;;;;;;64.03;37.17;;;12.10;62.50;;;;;;5075654;28;20016;-78
2022/03/16 08:10:18;;;;;;;31.27;18.65;;;12.10;66.40;;;;;;5076977;28;20095;-81
2022/03/16 08:12:44;;;;;;;50.97;28.98;;;12.90;62.80;;;;;;5059503;28;20048;-82
2022/03/16 08:15:10;;;;;;;32.92;19.17;;;13.30;61.70;;;;;;5078802;28;20024;-80
2022/03/16 08:17:35;;;;;;;30.27;19.58;;;12.80;61.90;;;;;;5058464;28;20402;-76
2022/03/16 08:20:01;;;;;;;56.42;28.00;;;12.60;63.50;;;;;;5072612;28;20738;-74
2022/03/16 08:22:29;;;;;;;29.70;18.60;;;12.80;64.20;;;;;;5079935;28;20008;-79
2022/03/16 08:24:56;;;;;;;48.05;29.88;;;13.70;62.70;;;;;;5075749;28;20036;-80
2022/03/16 08:27:22;;;;;;;71.97;41.65;;;14.90;57.80;;;;;;5078545;28;20081;-78
2022/03/16 08:29:48;;;;;;;34.10;20.67;;;15.80;56.30;;;;;;5076254;28;20263;-78
2022/03/16 08:32:14;;;;;;;26.30;17.58;;;16.40;54.40;;;;;;5075459;28;20020;-78
2022/03/16 08:34:39;;;;;;;39.40;22.20;;;16.50;52.20;;;;;;5061077;28;20043;-79
2022/03/16 08:37:05;;;;;;;56.42;30.00;;;16.30;53.00;;;;;;5077559;28;20032;-83
2022/03/16 08:39:31;;;;;;;47.10;28.15;;;16.60;53.20;;;;;;5076987;28;20052;-79
2022/03/16 08:41:56;;;;;;;37.95;22.48;;;17.30;51.20;;;;;;5058368;28;20021;-77
2022/03/16 08:44:23;;;;;;;25.00;16.42;;;17.40;49.20;;;;;;5074081;28;20017;-78
2022/03/16 08:46:50;;;;;;;22.50;16.88;;;16.50;49.90;;;;;;5073925;28;20012;-79
2022/03/16 08:49:16;;;;;;;27.25;18.05;;;13.70;56.90;;;;;;5076373;28;20070;-78
2022/03/16 08:51:42;;;;;;;34.92;21.58;;;12.20;61.70;;;;;;5078749;28;20029;-79
2022/03/16 08:54:08;;;;;;;26.90;18.25;;;11.70;64.90;;;;;;5078304;28;20036;-79
2022/03/16 08:56:33;;;;;;;27.65;18.85;;;11.90;64.70;;;;;;5081542;28;20088;-79
2022/03/16 08:59:00;;;;;;;42.90;25.73;;;11.90;64.60;;;;;;5064472;28;20542;-79
2022/03/16 09:01:26;;;;;;;24.90;17.15;;;12.40;63.90;;;;;;5081858;28;20013;-79
2022/03/16 09:03:53;;;;;;;31.17;17.95;;;13.20;62.20;;;;;;5079258;28;20035;-84
2022/03/16 09:06:19;;;;;;;28.95;18.13;;;14.00;59.80;;;;;;5089475;28;20035;-78
2022/03/16 09:08:45;;;;;;;34.97;18.95;;;14.50;57.40;;;;;;5080361;28;20032;-80
2022/03/16 09:11:11;;;;;;;28.08;18.60;;;14.00;58.50;;;;;;5082958;28;20028;-80
2022/03/16 09:13:36;;;;;;;24.25;17.38;;;14.10;58.10;;;;;;5083533;28;20384;-81
2022/03/16 09:16:02;;;;;;;27.50;18.88;;;13.60;57.70;;;;;;5082665;28;20254;-79
2022/03/16 09:18:28;;;;;;;34.50;20.00;;;12.90;59.70;;;;;;5082017;28;20090;-81
2022/03/16 09:20:54;;;;;;;44.58;20.40;;;12.80;61.60;;;;;;5081749;28;20027;-79
2022/03/16 09:23:20;;;;;;;23.92;17.45;;;13.00;61.90;;;;;;5080440;28;20029;-77
2022/03/16 09:25:45;;;;;;;28.38;19.05;;;12.70;60.80;;;;;;5077325;28;20036;-78
2022/03/16 09:28:12;;;;;;;31.77;18.90;;;12.60;61.60;;;;;;5076632;28;20494;-78
2022/03/16 09:30:38;;;;;;;31.10;19.77;;;13.00;61.50;;;;;;5059426;28;20459;-78
2022/03/16 09:33:04;;;;;;;27.75;16.42;;;13.50;59.30;;;;;;5077340;28;20094;-78
2022/03/16 09:35:31;;;;;;;32.72;18.70;;;14.30;58.80;;;;;;5079525;28;20078;-78
2022/03/16 09:37:58;;;;;;;26.60;16.92;;;14.80;56.30;;;;;;5080926;28;20048;-79
2022/03/16 09:40:24;;;;;;;27.65;16.92;;;14.60;55.20;;;;;;5077513;28;20387;-78
2022/03/16 09:42:52;;;;;;;27.63;17.60;;;14.10;56.30;;;;;;5065631;28;20016;-78
2022/03/16 09:45:20;;;;;;;25.60;18.45;;;13.50;58.20;;;;;;5076052;28;20494;-75
2022/03/16 09:47:50;;;;;;;24.73;18.27;;;12.70;60.70;;;;;;5073086;28;20387;-76
2022/03/16 09:50:19;;;;;;;27.42;17.95;;;12.80;60.60;;;;;;5079318;28;20032;-78
2022/03/16 09:52:46;;;;;;;55.10;31.42;;;12.90;59.60;;;;;;5057360;28;20116;-76
2022/03/16 09:55:13;;;;;;;28.08;18.58;;;12.90;61.00;;;;;;5074681;28;20383;-77
2022/03/16 09:57:38;;;;;;;25.55;16.92;;;12.90;59.70;;;;;;5071480;28;20020;-77
2022/03/16 10:00:06;;;;;;;28.52;19.50;;;12.30;60.80;;;;;;5072938;28;20031;-80
2022/03/16 10:02:31;;;;;;;87.70;49.63;;;12.50;63.20;;;;;;5075356;28;20021;-77
2022/03/16 10:04:57;;;;;;;28.20;19.48;;;13.00;63.40;;;;;;5060348;28;20062;-80
2022/03/16 10:07:29;;;;;;;32.33;21.13;;;13.80;59.20;;;;;;5087294;28;20028;-82
2022/03/16 10:15:24;;;;;;;79.72;45.50;;;14.00;57.00;;;;;;5080497;28;20031;-79
2022/03/16 10:18:05;;;;;;;28.85;18.23;;;13.50;59.80;;;;;;5057333;28;20032;-77
2022/03/16 10:20:39;;;;;;;30.98;18.42;;;13.50;58.40;;;;;;5060183;28;20091;-79
2022/03/16 10:23:14;;;;;;;29.27;19.08;;;12.80;60.40;;;;;;5058523;28;20027;-79
2022/03/16 10:25:43;;;;;;;25.10;18.80;;;12.70;61.20;;;;;;5079496;28;20024;-83
2022/03/16 10:28:22;;;;;;;33.65;22.45;;;12.80;61.10;;;;;;5063874;28;20055;-82
2022/03/16 10:30:52;;;;;;;57.90;34.38;;;12.90;60.50;;;;;;5079594;28;20052;-80
2022/03/16 10:33:19;;;;;;;27.52;19.23;;;13.20;60.70;;;;;;5080697;28;20042;-80
2022/03/16 10:36:03;;;;;;;26.42;19.65;;;13.30;59.00;;;;;;5080666;28;20060;-78
2022/03/16 10:38:30;;;;;;;27.58;19.00;;;12.70;59.70;;;;;;5060168;28;20020;-77
2022/03/16 10:41:12;;;;;;;31.58;22.52;;;12.80;60.10;;;;;;5075191;28;20024;-76
2022/03/16 10:46:35;;;;;;;48.28;30.50;;;12.90;59.70;;;;;;5083899;28;20047;-81
2022/03/16 10:49:06;;;;;;;27.08;19.17;;;13.00;60.30;;;;;;5085534;28;20028;-81
2022/03/16 10:51:32;;;;;;;54.80;32.30;;;13.30;59.40;;;;;;5087044;28;20020;-77
2022/03/16 10:54:00;;;;;;;30.35;19.63;;;13.50;58.90;;;;;;5071820;28;20451;-82
2022/03/16 10:56:27;;;;;;;31.65;21.88;;;13.70;57.90;;;;;;5090370;28;20031;-80
2022/03/16 10:58:54;;;;;;;35.85;23.52;;;13.20;57.70;;;;;;5088049;28;20029;-78
2022/03/16 11:01:21;;;;;;;34.28;23.75;;;12.60;59.40;;;;;;5087207;28;20029;-82
2022/03/16 11:03:51;;;;;;;35.42;22.40;;;12.50;59.80;;;;;;5083965;28;20442;-80
2022/03/16 11:06:20;;;;;;;30.65;21.30;;;12.60;60.20;;;;;;5068597;28;20043;-78
2022/03/16 11:08:47;;;;;;;52.53;28.70;;;12.50;58.70;;;;;;5079365;28;20363;-78
2022/03/16 11:13:59;;;;;;;37.67;25.25;;;13.00;59.30;;;;;;5077026;28;20452;-78
2022/03/16 11:16:25;;;;;;;40.05;25.85;;;13.40;57.70;;;;;;5078153;28;20046;-79
2022/03/16 11:18:51;;;;;;;31.02;22.27;;;13.80;56.80;;;;;;5074422;28;20036;-80
2022/03/16 11:21:25;;;;;;;55.03;34.47;;;14.30;56.10;;;;;;5088206;28;20020;-79
2022/03/16 11:27:04;;;;;;;86.05;54.65;;;14.70;53.90;;;;;;5068715;28;20067;-78
2022/03/16 11:29:48;;;;;;;65.22;38.33;;;14.90;53.30;;;;;;5079442;28;20048;-78
2022/03/16 11:32:16;;;;;;;70.22;40.58;;;14.70;53.50;;;;;;5072756;28;20458;-77
2022/03/16 11:34:47;;;;;;;27.38;20.05;;;14.40;54.10;;;;;;5074467;28;20035;-77
2022/03/16 11:37:14;;;;;;;;;;;14.00;53.70;;;;;;5076729;28;20047;-79
2022/03/16 11:39:44;;;;;;;36.83;23.52;;;13.80;55.80;;;;;;5077483;28;19955;-77
2022/03/16 11:42:14;;;;;;;43.05;27.13;;;13.70;55.40;;;;;;5081041;28;20016;-79
2022/03/16 11:44:41;;;;;;;29.13;20.63;;;13.70;55.70;;;;;;5086184;28;20088;-82
2022/03/16 11:47:10;;;;;;;61.90;34.25;;;13.70;54.70;;;;;;5068156;28;20031;-79
2022/03/16 11:49:44;;;;;;;44.58;26.75;;;13.60;56.40;;;;;;5076353;28;20031;-78
2022/03/16 11:52:10;;;;;;;64.10;35.15;;;13.70;55.00;;;;;;5074807;28;20391;-79
2022/03/16 11:54:43;;;;;;;29.65;19.30;;;13.80;54.70;;;;;;5076245;28;20032;-79
2022/03/16 11:57:09;;;;;;;23.08;16.05;;;13.70;54.60;;;;;;5078383;28;20385;-80
2022/03/16 11:59:44;;;;;;;23.90;16.65;;;13.60;53.90;;;;;;5080399;28;20024;-78
2022/03/16 12:02:25;;;;;;;25.58;17.63;;;13.60;54.50;;;;;;5067981;28;20021;-82
2022/03/16 12:04:57;;;;;;;25.05;16.90;;;13.30;53.90;;;;;;5082342;28;20024;-79
2022/03/16 12:07:23;;;;;;;29.80;18.13;;;12.90;55.10;;;;;;5077765;28;20056;-77
2022/03/16 12:09:52;;;;;;;24.95;17.10;;;13.00;55.90;;;;;;5055713;28;20059;-77
2022/03/16 12:15:31;;;;;;;23.33;16.70;;;13.40;54.60;;;;;;5087718;28;20067;-82
2022/03/16 12:17:57;;;;;;;21.92;16.25;;;13.20;54.90;;;;;;5092564;28;20046;-81
2022/03/16 12:20:36;;;;;;;22.27;16.17;;;12.90;55.50;;;;;;5091095;28;20072;-79
2022/03/16 12:23:09;;;;;;;21.70;14.30;;;12.90;55.80;;;;;;5087735;28;20073;-80
2022/03/16 12:25:37;;;;;;;23.35;16.35;;;13.00;55.70;;;;;;5087878;28;20031;-79
2022/03/16 12:31:20;;;;;;;31.13;17.17;;;13.50;55.30;;;;;;5034765;28;20361;-80
2022/03/16 12:33:52;;;;;;;27.10;17.25;;;13.70;54.00;;;;;;5059175;28;20024;-80
2022/03/16 12:36:27;;;;;;;25.38;17.60;;;14.00;53.80;;;;;;5077604;28;20024;-79
2022/03/16 12:39:13;;;;;;;21.17;14.57;;;14.10;54.50;;;;;;5079039;28;20054;-78
2022/03/16 12:44:23;;;;;;;18.67;12.88;;;13.30;53.70;;;;;;5074254;28;20027;-79
2022/03/16 12:46:53;;;;;;;19.15;12.50;;;12.70;54.30;;;;;;5075242;28;20107;-80
2022/03/16 12:49:21;;;;;;;16.90;11.68;;;12.60;55.20;;;;;;5075196;28;20074;-80
2022/03/16 12:51:59;;;;;;;18.98;12.93;;;12.50;54.90;;;;;;5059963;28;20039;-80
2022/03/16 12:54:31;;;;;;;18.55;12.10;;;12.40;55.20;;;;;;5065078;28;20020;-80
2022/03/16 12:57:06;;;;;;;18.90;12.65;;;12.20;56.10;;;;;;5077269;28;20560;-78
2022/03/16 12:59:44;;;;;;;27.77;13.68;;;12.20;56.40;;;;;;5083697;28;20025;-80